createdAt,value
2022-10-17T00:01:19.272Z,101502.19
2022-10-17T00:04:22.415Z,101503.81
2022-10-17T00:07:25.619Z,101503.31
2022-10-17T00:10:28.718Z,101506.50
2022-10-17T00:13:34.514Z,101499.91
2022-10-17T00:16:37.941Z,101495.69
2022-10-17T00:19:40.595Z,101506.03
2022-10-17T00:22:43.930Z,101499.72
2022-10-17T00:25:47.076Z,101500.34
2022-10-17T00:28:51.798Z,101500.22
2022-10-17T00:31:56.396Z,101505.66
2022-10-17T00:35:01.598Z,101507.28
2022-10-17T00:38:04.191Z,101507.06
2022-10-17T00:41:08.868Z,101506.59
2022-10-17T00:44:31.706Z,101499.16
2022-10-17T00:47:36.996Z,101511.00
2022-10-17T00:50:43.273Z,101510.44
2022-10-17T00:53:46.373Z,101497.69
2022-10-17T00:56:55.204Z,101503.84
2022-10-17T01:00:00.032Z,101510.53
2022-10-17T01:03:02.789Z,101514.47
2022-10-17T01:06:05.898Z,101505.47
2022-10-17T01:09:08.759Z,101498.28
2022-10-17T01:12:20.766Z,101496.09
2022-10-17T01:15:26.057Z,101504.66
2022-10-17T01:18:51.882Z,101496.44
2022-10-17T01:22:09.291Z,101497.47
2022-10-17T01:25:35.509Z,101494.34
2022-10-17T01:28:59.645Z,101494.69
2022-10-17T01:32:23.209Z,101496.44
2022-10-17T01:35:53.894Z,101491.09
2022-10-17T01:39:21.281Z,101486.03
2022-10-17T01:43:09.095Z,101485.78
2022-10-17T01:46:19.791Z,101493.66
2022-10-17T01:49:27.159Z,101494.59
2022-10-17T01:52:38.899Z,101494.47
2022-10-17T01:55:45.145Z,101492.38
2022-10-17T01:59:00.837Z,101495.84
2022-10-17T02:02:05.352Z,101502.47
2022-10-17T02:05:10.535Z,101494.00
2022-10-17T02:08:14.032Z,101497.81
2022-10-17T02:11:23.886Z,101492.50
2022-10-17T02:14:37.809Z,101499.44
2022-10-17T02:18:16.195Z,101496.44
2022-10-17T02:21:48.151Z,101497.44
2022-10-17T02:25:09.659Z,101495.72
2022-10-17T02:28:25.832Z,101491.75
2022-10-17T02:31:42.113Z,101499.34
2022-10-17T02:34:52.723Z,101494.53
2022-10-17T02:37:56.361Z,101506.59
2022-10-17T02:41:01.150Z,101510.75
2022-10-17T02:44:07.079Z,101515.28
2022-10-17T02:47:18.673Z,101513.09
2022-10-17T02:53:55.315Z,101511.34
2022-10-17T02:57:04.501Z,101514.09
2022-10-17T03:00:11.188Z,101516.75
2022-10-17T03:03:27.413Z,101516.00
2022-10-17T03:06:30.560Z,101516.22
2022-10-17T03:09:33.718Z,101514.91
2022-10-17T03:12:36.523Z,101527.41
2022-10-17T03:15:39.522Z,101521.84
2022-10-17T03:18:45.378Z,101526.69
2022-10-17T03:21:51.021Z,101540.00
2022-10-17T03:24:53.942Z,101549.91
2022-10-17T03:28:00.583Z,101549.50
2022-10-17T03:31:11.110Z,101551.44
2022-10-17T03:34:16.908Z,101552.69
2022-10-17T03:37:19.930Z,101555.56
2022-10-17T03:40:23.191Z,101556.72
2022-10-17T03:43:25.834Z,101556.22
2022-10-17T03:46:28.834Z,101558.53
2022-10-17T03:49:31.990Z,101565.75
2022-10-17T03:52:35.144Z,101572.87
2022-10-17T03:55:38.785Z,101571.47
2022-10-17T03:58:42.634Z,101558.13
2022-10-17T04:01:45.551Z,101567.66
2022-10-17T04:04:49.766Z,101560.88
2022-10-17T04:07:52.434Z,101568.66
2022-10-17T04:11:01.059Z,101572.09
2022-10-17T04:14:03.957Z,101574.66
2022-10-17T04:17:07.013Z,101575.59
2022-10-17T04:20:10.750Z,101577.50
2022-10-17T04:23:13.856Z,101582.16
2022-10-17T04:26:16.773Z,101574.06
2022-10-17T04:29:19.788Z,101591.31
2022-10-17T04:32:22.912Z,101594.19
2022-10-17T04:35:26.334Z,101589.22
2022-10-17T04:38:29.974Z,101588.53
2022-10-17T04:41:33.048Z,101593.69
2022-10-17T04:44:37.776Z,101604.34
2022-10-17T04:47:41.140Z,101601.16
2022-10-17T04:50:57.401Z,101595.41
2022-10-17T04:54:01.290Z,101600.91
2022-10-17T04:57:04.446Z,101600.91
2022-10-17T05:03:20.580Z,101607.13
2022-10-17T05:06:25.832Z,101615.56
2022-10-17T05:09:30.956Z,101610.63
2022-10-17T05:12:34.072Z,101609.06
2022-10-17T05:15:37.926Z,101614.06
2022-10-17T05:18:40.876Z,101622.72
2022-10-17T05:21:46.327Z,101616.91
2022-10-17T05:24:49.223Z,101625.19
2022-10-17T05:27:51.887Z,101631.06
2022-10-17T05:30:55.195Z,101632.97
2022-10-17T05:34:02.719Z,101636.03
2022-10-17T05:37:06.387Z,101645.16
2022-10-17T05:40:09.687Z,101649.78
2022-10-17T05:43:12.842Z,101654.50
2022-10-17T05:46:15.525Z,101661.53
2022-10-17T05:49:31.959Z,101662.00
2022-10-17T05:52:36.176Z,101671.28
2022-10-17T05:55:39.583Z,101671.53
2022-10-17T05:58:51.547Z,101668.84
2022-10-17T06:01:58.070Z,101677.56
2022-10-17T06:05:02.375Z,101678.84
2022-10-17T06:08:05.246Z,101679.16
2022-10-17T06:11:10.486Z,101677.31
2022-10-17T06:14:13.975Z,101688.66
2022-10-17T06:17:17.376Z,101685.44
2022-10-17T06:20:20.317Z,101695.59
2022-10-17T06:23:23.402Z,101698.97
2022-10-17T06:26:28.293Z,101700.88
2022-10-17T06:29:31.847Z,101706.44
2022-10-17T06:32:34.489Z,101702.22
2022-10-17T06:35:37.494Z,101709.28
2022-10-17T06:38:40.208Z,101717.91
2022-10-17T06:41:45.141Z,101719.94
2022-10-17T06:44:47.795Z,101724.66
2022-10-17T06:47:53.867Z,101717.03
2022-10-17T06:51:02.423Z,101717.84
2022-10-17T06:54:05.462Z,101724.72
2022-10-17T06:57:08.887Z,101735.44
2022-10-17T07:00:12.836Z,101732.56
2022-10-17T07:03:16.146Z,101745.16
2022-10-17T07:06:19.413Z,101745.97
2022-10-17T07:09:23.090Z,101740.81
2022-10-17T07:12:26.596Z,101753.09
2022-10-17T07:15:29.229Z,101751.44
2022-10-17T07:18:32.778Z,101753.75
2022-10-17T07:21:38.301Z,101759.31
2022-10-17T07:24:42.727Z,101746.41
2022-10-17T07:27:49.683Z,101760.22
2022-10-17T07:30:55.373Z,101755.59
2022-10-17T07:34:00.513Z,101760.94
2022-10-17T07:37:04.365Z,101762.84
2022-10-17T07:40:09.897Z,101759.88
2022-10-17T07:43:13.042Z,101770.22
2022-10-17T07:46:15.676Z,101768.03
2022-10-17T07:49:20.008Z,101765.03
2022-10-17T07:52:23.372Z,101763.75
2022-10-17T07:55:26.298Z,101756.69
2022-10-17T07:58:29.650Z,101760.47
2022-10-17T08:01:32.536Z,101765.75
2022-10-17T08:04:36.641Z,101756.75
2022-10-17T08:07:40.527Z,101759.81
2022-10-17T08:10:43.397Z,101762.81
2022-10-17T08:13:46.028Z,101769.44
2022-10-17T08:16:48.934Z,101772.81
2022-10-17T08:19:51.689Z,101762.91
2022-10-17T08:22:55.554Z,101774.41
2022-10-17T08:26:03.565Z,101768.53
2022-10-17T08:29:06.547Z,101773.09
2022-10-17T08:32:10.340Z,101780.84
2022-10-17T08:35:15.189Z,101773.66
2022-10-17T08:38:20.921Z,101772.78
2022-10-17T08:41:50.651Z,101773.06
2022-10-17T08:44:55.919Z,101773.31
2022-10-17T08:48:02.330Z,101763.78
2022-10-17T08:51:16.478Z,101768.13
2022-10-17T08:54:26.571Z,101772.72
2022-10-17T08:57:29.692Z,101766.19
2022-10-17T09:00:33.953Z,101760.62
2022-10-17T09:04:09.827Z,101768.84
2022-10-17T09:07:28.340Z,101763.00
2022-10-17T09:10:36.909Z,101763.34
2022-10-17T09:13:55.258Z,101762.19
2022-10-17T09:17:07.475Z,101761.28
2022-10-17T09:20:20.082Z,101758.69
2022-10-17T09:23:30.440Z,101756.22
2022-10-17T09:26:34.974Z,101765.87
2022-10-17T09:29:42.940Z,101757.34
2022-10-17T09:32:47.872Z,101759.81
2022-10-17T09:35:51.748Z,101751.22
2022-10-17T09:39:00.505Z,101764.12
2022-10-17T09:42:04.529Z,101755.69
2022-10-17T09:45:20.147Z,101768.22
2022-10-17T09:48:37.337Z,101762.16
2022-10-17T09:51:40.968Z,101765.69
2022-10-17T09:55:08.633Z,101771.59
2022-10-17T09:58:12.098Z,101761.97
2022-10-17T10:01:29.494Z,101763.97
2022-10-17T10:04:46.745Z,101760.97
2022-10-17T10:08:13.632Z,101753.56
2022-10-17T10:11:17.947Z,101755.94
2022-10-17T10:14:39.868Z,101757.41
2022-10-17T10:17:43.574Z,101751.87
2022-10-17T10:20:47.072Z,101740.34
2022-10-17T10:24:08.738Z,101756.31
2022-10-17T10:27:17.043Z,101747.97
2022-10-17T10:30:25.754Z,101742.44
2022-10-17T10:33:30.702Z,101744.19
2022-10-17T10:36:50.250Z,101744.59
2022-10-17T10:39:57.318Z,101749.66
2022-10-17T10:43:05.099Z,101740.50
2022-10-17T10:46:18.519Z,101739.72
2022-10-17T10:49:32.469Z,101737.66
2022-10-17T10:52:44.484Z,101738.37
2022-10-17T10:55:52.845Z,101727.94
2022-10-17T10:59:26.726Z,101735.97
2022-10-17T11:02:43.149Z,101731.97
2022-10-17T11:06:01.347Z,101723.94
2022-10-17T11:09:34.180Z,101725.84
2022-10-17T11:15:54.035Z,101716.09
2022-10-17T11:19:12.397Z,101722.13
2022-10-17T11:22:31.386Z,101729.88
2022-10-17T11:25:37.385Z,101721.69
2022-10-17T11:28:40.374Z,101720.56
2022-10-17T11:31:49.659Z,101720.47
2022-10-17T11:34:59.609Z,101724.16
2022-10-17T11:38:22.511Z,101724.06
2022-10-17T11:41:46.592Z,101720.72
2022-10-17T11:44:52.354Z,101718.41
2022-10-17T11:48:08.080Z,101719.22
2022-10-17T11:54:54.785Z,101716.06
2022-10-17T11:58:48.550Z,101716.41
2022-10-17T12:02:02.057Z,101704.66
2022-10-17T12:05:20.532Z,101701.50
2022-10-17T12:08:47.484Z,101704.87
2022-10-17T12:11:59.986Z,101707.25
2022-10-17T12:15:20.856Z,101696.59
2022-10-17T12:18:27.577Z,101695.13
2022-10-17T12:21:55.208Z,101688.56
2022-10-17T12:25:02.870Z,101694.19
2022-10-17T12:28:30.917Z,101692.81
2022-10-17T12:31:34.382Z,101679.41
2022-10-17T12:34:38.306Z,101682.09
2022-10-17T12:38:02.347Z,101674.53
2022-10-17T12:41:06.115Z,101670.72
2022-10-17T12:44:15.141Z,101672.88
2022-10-17T12:47:36.797Z,101678.44
2022-10-17T12:51:34.220Z,101671.38
2022-10-17T12:54:47.246Z,101668.94
2022-10-17T12:58:11.101Z,101668.97
2022-10-17T13:01:26.015Z,101659.94
2022-10-17T13:04:31.167Z,101654.19
2022-10-17T13:07:36.643Z,101658.03
2022-10-17T13:10:43.090Z,101668.09
2022-10-17T13:13:52.043Z,101675.47
2022-10-17T13:16:56.504Z,101664.69
2022-10-17T13:19:59.173Z,101657.19
2022-10-17T13:23:03.305Z,101657.66
2022-10-17T13:26:22.566Z,101658.69
2022-10-17T13:29:26.353Z,101663.72
2022-10-17T13:32:37.651Z,101663.97
2022-10-17T13:36:00.378Z,101656.53
2022-10-17T13:39:14.957Z,101659.63
2022-10-17T13:42:40.820Z,101654.56
2022-10-17T13:45:49.604Z,101658.41
2022-10-17T13:48:57.555Z,101646.22
2022-10-17T13:52:02.869Z,101646.94
2022-10-17T13:55:17.828Z,101645.06
2022-10-17T13:58:21.427Z,101644.34
2022-10-17T14:01:26.924Z,101647.19
2022-10-17T14:04:40.023Z,101637.53
2022-10-17T14:08:11.980Z,101644.41
2022-10-17T14:11:23.634Z,101649.34
2022-10-17T14:14:27.245Z,101649.03
2022-10-17T14:17:31.410Z,101651.50
2022-10-17T14:24:21.352Z,101649.12
2022-10-17T14:28:03.666Z,101640.31
2022-10-17T14:31:30.143Z,101648.81
2022-10-17T14:34:36.215Z,101645.19
2022-10-17T14:37:45.807Z,101653.72
2022-10-17T14:44:52.144Z,101652.97
2022-10-17T14:48:01.195Z,101655.38
2022-10-17T14:51:15.554Z,101651.78
2022-10-17T14:54:27.475Z,101655.03
2022-10-17T14:57:33.179Z,101650.22
2022-10-17T15:00:35.692Z,101649.44
2022-10-17T15:03:38.726Z,101662.34
2022-10-17T15:06:41.969Z,101668.78
2022-10-17T15:09:48.796Z,101665.16
2022-10-17T15:13:04.512Z,101668.78
2022-10-17T15:16:30.614Z,101668.00
2022-10-17T15:19:33.710Z,101668.00
2022-10-17T15:22:38.159Z,101680.06
2022-10-17T15:25:41.033Z,101674.81
2022-10-17T15:28:46.459Z,101676.81
2022-10-17T15:31:49.119Z,101680.81
2022-10-17T15:34:53.596Z,101678.41
2022-10-17T15:37:56.257Z,101672.72
2022-10-17T15:40:59.283Z,101672.69
2022-10-17T15:44:01.886Z,101666.97
2022-10-17T15:47:20.061Z,101678.19
2022-10-17T15:50:22.958Z,101678.50
2022-10-17T15:53:26.070Z,101679.22
2022-10-17T15:56:41.486Z,101687.53
2022-10-17T15:59:47.089Z,101682.62
2022-10-17T16:02:51.546Z,101696.56
2022-10-17T16:05:57.268Z,101691.59
2022-10-17T16:08:59.929Z,101694.69
2022-10-17T16:12:14.336Z,101701.37
2022-10-17T16:15:23.004Z,101700.47
2022-10-17T16:18:27.275Z,101705.19
2022-10-17T16:21:33.281Z,101701.53
2022-10-17T16:24:36.124Z,101709.97
2022-10-17T16:27:39.361Z,101707.97
2022-10-17T16:30:46.464Z,101706.34
2022-10-17T16:33:51.666Z,101718.31
2022-10-17T16:36:54.734Z,101708.25
2022-10-17T16:39:58.265Z,101717.56
2022-10-17T16:43:02.588Z,101716.31
2022-10-17T16:46:05.427Z,101721.84
2022-10-17T16:49:08.353Z,101726.69
2022-10-17T16:52:11.551Z,101723.69
2022-10-17T16:55:14.791Z,101728.31
2022-10-17T16:58:17.543Z,101737.66
2022-10-17T17:01:23.752Z,101730.66
2022-10-17T17:04:26.899Z,101725.16
2022-10-17T17:07:30.845Z,101726.75
2022-10-17T17:10:34.763Z,101730.19
2022-10-17T17:13:38.343Z,101734.38
2022-10-17T17:16:42.189Z,101731.44
2022-10-17T17:19:47.073Z,101730.03
2022-10-17T17:22:51.000Z,101736.56
2022-10-17T17:26:03.133Z,101741.41
2022-10-17T17:29:06.018Z,101744.38
2022-10-17T17:32:09.483Z,101743.88
2022-10-17T17:35:12.607Z,101740.22
2022-10-17T17:38:16.085Z,101732.66
2022-10-17T17:41:20.912Z,101742.66
2022-10-17T17:44:24.184Z,101737.00
2022-10-17T17:47:31.459Z,101735.63
2022-10-17T17:50:38.527Z,101747.41
2022-10-17T17:53:41.493Z,101740.16
2022-10-17T17:56:44.501Z,101729.47
2022-10-17T17:59:48.700Z,101738.06
2022-10-17T18:02:52.171Z,101739.63
2022-10-17T18:05:55.441Z,101739.13
2022-10-17T18:08:59.440Z,101736.69
2022-10-17T18:12:02.859Z,101735.22
2022-10-17T18:15:06.952Z,101741.03
2022-10-17T18:18:10.969Z,101733.84
2022-10-17T18:21:14.993Z,101734.41
2022-10-17T18:24:23.603Z,101734.81
2022-10-17T18:27:26.831Z,101736.50
2022-10-17T18:30:33.720Z,101730.09
2022-10-17T18:33:38.310Z,101736.72
2022-10-17T18:36:41.632Z,101730.69
2022-10-17T18:39:45.488Z,101735.59
2022-10-17T18:42:48.833Z,101731.34
2022-10-17T18:45:56.714Z,101734.59
2022-10-17T18:49:00.151Z,101724.00
2022-10-17T18:52:04.445Z,101729.91
2022-10-17T18:55:08.295Z,101725.44
2022-10-17T18:58:11.278Z,101718.56
2022-10-17T19:01:18.041Z,101725.22
2022-10-17T19:04:22.355Z,101736.38
2022-10-17T19:07:25.467Z,101722.25
2022-10-17T19:10:28.104Z,101725.47
2022-10-17T19:13:32.194Z,101726.47
2022-10-17T19:16:41.591Z,101725.75
2022-10-17T19:19:46.471Z,101731.00
2022-10-17T19:26:05.999Z,101723.75
2022-10-17T19:29:12.679Z,101720.50
2022-10-17T19:32:20.621Z,101722.56
2022-10-17T19:35:28.691Z,101724.25
2022-10-17T19:38:32.079Z,101716.31
2022-10-17T19:41:36.536Z,101728.31
2022-10-17T19:44:40.238Z,101723.50
2022-10-17T19:47:42.892Z,101726.38
2022-10-17T19:50:46.210Z,101721.37
2022-10-17T19:53:48.920Z,101718.31
2022-10-17T19:56:53.391Z,101718.37
2022-10-17T19:59:56.651Z,101722.38
2022-10-17T20:03:03.298Z,101720.69
2022-10-17T20:06:07.116Z,101721.84
2022-10-17T20:09:15.702Z,101726.47
2022-10-17T20:12:21.791Z,101722.94
2022-10-17T20:15:24.501Z,101724.87
2022-10-17T20:18:27.808Z,101726.41
2022-10-17T20:21:35.399Z,101724.87
2022-10-17T20:24:38.310Z,101726.34
2022-10-17T20:27:40.917Z,101726.28
2022-10-17T20:30:47.979Z,101729.44
2022-10-17T20:34:00.311Z,101727.78
2022-10-17T20:37:03.332Z,101725.66
2022-10-17T20:40:33.701Z,101733.59
2022-10-17T20:43:30.822Z,101729.31
2022-10-17T20:46:38.318Z,101733.28
2022-10-17T20:49:44.933Z,101739.56
2022-10-17T20:52:47.645Z,101734.28
2022-10-17T20:56:01.940Z,101735.37
2022-10-17T20:59:08.374Z,101725.66
2022-10-17T21:02:12.701Z,101721.25
2022-10-17T21:05:17.865Z,101732.47
2022-10-17T21:08:21.213Z,101728.56
2022-10-17T21:11:26.227Z,101728.44
2022-10-17T21:14:29.208Z,101729.63
2022-10-17T21:17:31.968Z,101718.22
2022-10-17T21:20:35.783Z,101724.69
2022-10-17T21:23:40.855Z,101724.38
2022-10-17T21:26:45.834Z,101730.41
2022-10-17T21:29:48.611Z,101724.53
2022-10-17T21:32:55.169Z,101725.03
2022-10-17T21:35:58.084Z,101720.47
2022-10-17T21:39:01.241Z,101715.25
2022-10-17T21:42:04.138Z,101715.63
2022-10-17T21:45:15.322Z,101709.38
2022-10-17T21:48:22.752Z,101706.47
2022-10-17T21:51:26.905Z,101707.13
2022-10-17T21:54:29.502Z,101698.72
2022-10-17T21:57:32.397Z,101702.16
2022-10-17T22:00:36.154Z,101700.00
2022-10-17T22:03:44.096Z,101702.84
2022-10-17T22:06:53.491Z,101704.94
2022-10-17T22:09:56.376Z,101704.22
2022-10-17T22:12:58.973Z,101704.72
2022-10-17T22:16:10.214Z,101703.88
2022-10-17T22:19:14.971Z,101706.03
2022-10-17T22:22:17.934Z,101698.34
2022-10-17T22:25:20.596Z,101686.41
2022-10-17T22:28:24.621Z,101685.66
2022-10-17T22:31:27.690Z,101678.28
2022-10-17T22:34:30.747Z,101683.06
2022-10-17T22:37:33.596Z,101678.72
2022-10-17T22:40:36.653Z,101684.03
2022-10-17T22:43:39.307Z,101674.13
2022-10-17T22:46:42.231Z,101677.56
2022-10-17T22:49:46.054Z,101677.66
2022-10-17T22:52:51.280Z,101672.97
2022-10-17T22:55:59.018Z,101672.75
2022-10-17T22:59:01.955Z,101672.75
2022-10-17T23:02:04.619Z,101676.09
2022-10-17T23:05:08.054Z,101671.56
2022-10-17T23:08:12.281Z,101669.00
2022-10-17T23:11:15.582Z,101673.03
2022-10-17T23:14:18.263Z,101665.03
2022-10-17T23:17:23.426Z,101667.69
2022-10-17T23:20:26.251Z,101662.28
2022-10-17T23:23:29.236Z,101661.56
2022-10-17T23:26:31.826Z,101656.25
2022-10-17T23:29:34.929Z,101652.62
2022-10-17T23:32:38.649Z,101664.44
2022-10-17T23:35:44.831Z,101652.62
2022-10-17T23:38:49.018Z,101652.12
2022-10-17T23:41:52.299Z,101650.72
2022-10-17T23:44:55.062Z,101652.16
2022-10-17T23:47:57.922Z,101654.78
2022-10-17T23:51:00.885Z,101650.75
2022-10-17T23:54:04.890Z,101651.13
2022-10-17T23:57:07.517Z,101655.84
